Time;durP1;ratioP1;P1;durP2;ratioP2;P2;SDS_P1;SDS_P2;PMS_P1;PMS_P2;Temp;Humidity;BMP_temperature;BMP_pressure;BME280_temperature;BME280_humidity;BME280_pressure;Samples;Min_cycle;Max_cycle;Signal;HPM_P1;HPM_P2
2022/12/30 00:02:21;;;;;;;0.80;0.70;;;6.40;99.90;;;;;;4933228;29;20223;-92
2022/12/30 00:04:57;;;;;;;0.80;0.70;;;6.30;99.90;;;;;;4933548;29;20253;-92
2022/12/30 00:07:26;;;;;;;0.80;0.70;;;6.30;99.90;;;;;;4930989;29;20201;-91
2022/12/30 00:09:59;;;;;;;1.15;0.95;;;6.30;99.90;;;;;;4932443;29;20245;-91
2022/12/30 00:35:03;;;;;;;0.85;0.80;;;6.20;99.90;;;;;;4938530;29;20189;-93
2022/12/30 00:37:29;;;;;;;0.70;0.60;;;6.20;99.90;;;;;;4934259;29;20269;-92
2022/12/30 00:39:56;;;;;;;1.00;0.90;;;6.20;99.90;;;;;;4917920;29;20230;-92
2022/12/30 00:45:09;;;;;;;1.25;1.05;;;6.20;99.90;;;;;;4889543;29;20331;-93
2022/12/30 00:47:36;;;;;;;0.80;0.70;;;6.20;99.90;;;;;;4919225;29;20216;-92
2022/12/30 00:58:16;;;;;;;1.00;0.82;;;6.20;99.90;;;;;;4918130;29;20206;-93
2022/12/30 01:00:44;;;;;;;1.20;0.80;;;6.20;99.90;;;;;;4925246;29;20237;-92
2022/12/30 01:03:11;;;;;;;0.70;0.60;;;6.10;99.90;;;;;;4930876;29;20221;-93
2022/12/30 01:05:38;;;;;;;0.85;0.80;;;6.10;99.90;;;;;;4919292;29;20229;-92
2022/12/30 01:08:05;;;;;;;0.80;0.70;;;6.10;99.90;;;;;;4918326;29;20212;-92
2022/12/30 01:10:32;;;;;;;0.80;0.70;;;6.10;99.90;;;;;;4917833;29;20231;-93
2022/12/30 01:12:59;;;;;;;1.67;1.00;;;6.10;99.90;;;;;;4918416;29;20221;-93
2022/12/30 01:15:26;;;;;;;0.95;0.80;;;6.10;99.90;;;;;;4918221;29;20664;-93
2022/12/30 01:17:54;;;;;;;0.80;0.70;;;6.10;99.90;;;;;;4918369;29;20207;-92
2022/12/30 01:20:21;;;;;;;1.35;0.80;;;6.10;99.90;;;;;;4918062;29;20245;-93
2022/12/30 01:22:48;;;;;;;0.80;0.70;;;6.10;99.90;;;;;;4918079;29;20557;-91
2022/12/30 01:25:15;;;;;;;1.50;0.75;;;6.10;99.90;;;;;;4918175;29;20228;-93
2022/12/30 01:27:42;;;;;;;0.80;0.70;;;6.10;99.90;;;;;;4918413;29;20209;-93
2022/12/30 01:30:09;;;;;;;1.10;0.90;;;6.10;99.90;;;;;;4917361;29;20226;-93
2022/12/30 01:32:36;;;;;;;0.95;0.85;;;6.10;99.90;;;;;;4917768;29;20217;-93
2022/12/30 01:35:05;;;;;;;1.45;0.90;;;6.10;99.90;;;;;;4917448;29;20209;-93
2022/12/30 01:37:33;;;;;;;1.48;0.80;;;6.10;99.90;;;;;;4917463;29;20213;-93
2022/12/30 01:39:59;;;;;;;1.00;0.90;;;6.00;99.90;;;;;;4918013;29;20240;-90
2022/12/30 01:42:29;;;;;;;1.60;1.05;;;6.00;99.90;;;;;;4921439;29;20221;-92
2022/12/30 01:45:17;;;;;;;2.85;1.00;;;5.90;99.90;;;;;;4921743;29;20225;-93
2022/12/30 01:47:48;;;;;;;0.75;0.70;;;5.90;99.90;;;;;;4921219;29;20217;-92
2022/12/30 01:50:27;;;;;;;0.80;0.80;;;5.80;99.90;;;;;;4921317;29;20687;-93
2022/12/30 01:53:00;;;;;;;1.00;0.90;;;5.80;99.90;;;;;;4921719;29;20198;-93
2022/12/30 01:55:32;;;;;;;0.70;0.70;;;5.80;99.90;;;;;;4922040;29;20276;-93
2022/12/30 01:58:01;;;;;;;0.93;0.80;;;5.80;99.90;;;;;;4921584;29;20644;-93
2022/12/30 02:00:28;;;;;;;0.80;0.70;;;5.80;99.90;;;;;;4921318;29;20221;-93
2022/12/30 02:02:56;;;;;;;1.23;0.90;;;5.80;99.90;;;;;;4921998;29;20202;-93
2022/12/30 02:05:28;;;;;;;0.90;0.80;;;5.80;99.90;;;;;;4921500;29;20230;-93
2022/12/30 02:08:05;;;;;;;0.70;0.70;;;5.70;99.90;;;;;;4923011;29;20277;-94
2022/12/30 02:10:34;;;;;;;1.45;1.13;;;5.70;99.90;;;;;;4920707;29;20265;-93
2022/12/30 02:13:01;;;;;;;0.80;0.80;;;5.70;99.90;;;;;;4921748;29;20232;-93
2022/12/30 02:15:41;;;;;;;2.60;0.80;;;5.70;99.90;;;;;;4921458;29;20221;-93
2022/12/30 02:18:18;;;;;;;2.95;1.10;;;5.70;99.90;;;;;;4921518;29;20229;-93
2022/12/30 02:21:14;;;;;;;0.80;0.70;;;5.70;99.90;;;;;;4921252;29;20237;-93
2022/12/30 02:24:29;;;;;;;1.15;0.70;;;5.70;99.90;;;;;;4920217;29;20198;-92
2022/12/30 02:27:20;;;;;;;0.80;0.70;;;5.70;99.90;;;;;;4921186;29;20224;-92
2022/12/30 02:30:16;;;;;;;0.80;0.70;;;5.70;99.90;;;;;;4920934;29;20226;-93
2022/12/30 02:32:59;;;;;;;1.17;1.08;;;5.60;99.90;;;;;;4920965;29;20229;-91
2022/12/30 02:35:32;;;;;;;0.80;0.70;;;5.60;99.90;;;;;;4921258;29;20213;-92
2022/12/30 02:38:04;;;;;;;2.00;0.85;;;5.60;99.90;;;;;;4920959;29;20587;-92
2022/12/30 02:46:08;;;;;;;0.80;0.70;;;5.50;99.90;;;;;;4920407;29;20236;-92
2022/12/30 02:48:40;;;;;;;0.80;0.70;;;5.40;99.90;;;;;;4920870;29;20217;-92
2022/12/30 02:53:53;;;;;;;1.00;0.80;;;5.30;99.90;;;;;;4919988;29;20306;-92
2022/12/30 02:56:20;;;;;;;1.00;0.80;;;5.30;99.90;;;;;;4920425;29;20202;-92
2022/12/30 02:58:50;;;;;;;1.65;0.80;;;5.30;99.90;;;;;;4919898;29;20262;-93
2022/12/30 03:04:22;;;;;;;1.02;0.82;;;5.20;99.90;;;;;;4919665;29;20290;-92
2022/12/30 03:07:02;;;;;;;0.90;0.75;;;5.20;99.90;;;;;;4919430;29;20213;-92
2022/12/30 03:11:12;;;;;;;2.85;1.00;;;5.10;99.90;;;;;;4919162;29;20209;-91
2022/12/30 03:12:33;;;;;;;0.90;0.80;;;5.10;99.90;;;;;;4918998;29;20204;-92
2022/12/30 03:15:05;;;;;;;0.95;0.85;;;5.10;99.90;;;;;;4922527;29;20201;-92
2022/12/30 03:17:35;;;;;;;2.42;0.90;;;5.10;99.90;;;;;;4942144;29;20262;-94
2022/12/30 03:20:08;;;;;;;1.00;0.90;;;5.10;99.90;;;;;;4942308;29;20230;-94
2022/12/30 03:28:09;;;;;;;0.80;0.70;;;4.90;99.90;;;;;;4943294;29;20169;-91
2022/12/30 03:30:43;;;;;;;1.10;0.80;;;4.80;99.90;;;;;;4942450;29;20274;-94
2022/12/30 03:33:10;;;;;;;1.38;0.80;;;4.80;99.90;;;;;;4937880;29;20234;-91
2022/12/30 03:35:45;;;;;;;1.77;0.80;;;4.70;99.90;;;;;;4922064;29;20209;-92
2022/12/30 03:38:14;;;;;;;1.00;0.80;;;4.50;99.90;;;;;;4921683;29;20217;-92
2022/12/30 03:40:43;;;;;;;1.10;0.70;;;4.50;99.90;;;;;;4920304;29;20225;-92
2022/12/30 03:43:11;;;;;;;0.90;0.80;;;4.40;99.90;;;;;;4920933;29;20246;-91
2022/12/30 03:45:38;;;;;;;0.90;0.80;;;4.30;99.90;;;;;;4920491;29;20309;-91
2022/12/30 03:48:05;;;;;;;0.80;0.70;;;4.30;99.90;;;;;;4919822;29;20209;-92
2022/12/30 03:50:32;;;;;;;0.80;0.70;;;4.20;99.90;;;;;;4920434;29;20229;-91
2022/12/30 03:53:00;;;;;;;0.80;0.75;;;4.20;99.90;;;;;;4922345;29;20233;-93
2022/12/30 03:55:27;;;;;;;0.82;0.70;;;4.20;99.90;;;;;;4921473;29;20572;-92
2022/12/30 03:57:53;;;;;;;1.63;1.23;;;4.10;99.90;;;;;;4921966;29;20216;-93
2022/12/30 04:00:22;;;;;;;2.25;0.90;;;4.00;99.90;;;;;;4922401;29;20223;-92
2022/12/30 04:02:48;;;;;;;1.42;0.90;;;4.00;99.90;;;;;;4933633;29;20218;-93
2022/12/30 04:05:15;;;;;;;0.70;0.60;;;4.00;99.90;;;;;;4930673;29;20214;-91
2022/12/30 04:07:42;;;;;;;1.30;0.90;;;4.10;99.90;;;;;;4921087;29;20223;-91
2022/12/30 04:10:11;;;;;;;2.45;1.15;;;4.10;99.90;;;;;;4921894;29;20335;-92
2022/12/30 04:12:38;;;;;;;1.10;0.90;;;4.10;99.90;;;;;;4931378;29;20213;-93
2022/12/30 04:15:05;;;;;;;1.10;1.00;;;4.20;99.90;;;;;;4933102;29;20206;-91
2022/12/30 04:17:32;;;;;;;0.90;0.80;;;4.20;99.90;;;;;;4920284;29;20218;-92
2022/12/30 04:19:59;;;;;;;0.80;0.75;;;4.20;99.90;;;;;;4919611;29;20249;-92
2022/12/30 04:22:26;;;;;;;0.80;0.70;;;4.20;99.90;;;;;;4919717;29;20210;-92
2022/12/30 04:24:52;;;;;;;0.80;0.80;;;4.30;99.90;;;;;;4919824;29;20711;-92
2022/12/30 04:27:21;;;;;;;0.85;0.77;;;4.30;99.90;;;;;;4919496;29;20204;-91
2022/12/30 04:29:47;;;;;;;0.90;0.77;;;4.30;99.90;;;;;;4918525;29;20230;-91
2022/12/30 04:32:14;;;;;;;1.30;0.90;;;4.30;99.90;;;;;;4918301;29;20221;-91
2022/12/30 04:34:41;;;;;;;0.90;0.70;;;4.30;99.90;;;;;;4924311;29;20579;-92
2022/12/30 04:37:08;;;;;;;4.80;0.88;;;4.20;99.90;;;;;;4933896;29;20290;-92
2022/12/30 04:39:35;;;;;;;0.85;0.80;;;4.30;99.90;;;;;;4919435;29;20215;-91
2022/12/30 04:42:01;;;;;;;1.00;0.90;;;4.20;99.90;;;;;;4920759;29;20302;-92
2022/12/30 04:44:30;;;;;;;1.70;0.90;;;4.20;99.90;;;;;;4922977;29;20273;-93
2022/12/30 04:46:56;;;;;;;1.13;0.80;;;4.30;99.90;;;;;;4919637;29;20226;-92
2022/12/30 04:49:23;;;;;;;1.40;0.90;;;4.20;99.90;;;;;;4918093;29;20211;-93
2022/12/30 04:51:51;;;;;;;1.63;1.52;;;4.30;99.90;;;;;;4919850;29;20210;-92
2022/12/30 04:54:17;;;;;;;1.10;0.80;;;4.30;99.90;;;;;;4921067;29;20244;-93
2022/12/30 04:56:53;;;;;;;1.10;1.00;;;4.30;99.90;;;;;;4923145;29;20208;-93
2022/12/30 04:59:20;;;;;;;1.00;0.80;;;4.30;99.90;;;;;;4922861;29;20297;-93
2022/12/30 05:01:48;;;;;;;0.80;0.70;;;4.30;99.90;;;;;;4919530;29;20237;-94
2022/12/30 05:04:15;;;;;;;0.90;0.70;;;4.30;99.90;;;;;;4919432;29;20210;-93
2022/12/30 05:06:42;;;;;;;0.80;0.70;;;4.30;99.90;;;;;;4919741;29;20229;-93
2022/12/30 05:09:09;;;;;;;1.83;0.88;;;4.30;99.90;;;;;;4919102;29;20202;-94
2022/12/30 05:11:36;;;;;;;2.40;0.77;;;4.40;99.90;;;;;;4922238;29;20315;-94
2022/12/30 05:14:02;;;;;;;0.90;0.80;;;4.40;99.90;;;;;;4922243;29;20208;-92
2022/12/30 05:16:29;;;;;;;1.70;0.98;;;4.40;99.90;;;;;;4921427;29;20202;-93
2022/12/30 05:18:58;;;;;;;0.80;0.70;;;4.40;99.90;;;;;;4924702;29;20569;-93
2022/12/30 05:21:24;;;;;;;0.70;0.70;;;4.40;99.90;;;;;;4936442;29;20294;-94
2022/12/30 05:26:36;;;;;;;1.13;0.85;;;4.50;99.90;;;;;;4940999;29;20204;-96
2022/12/30 05:29:03;;;;;;;1.30;0.85;;;4.50;99.90;;;;;;4940523;29;20180;-94
2022/12/30 05:31:29;;;;;;;0.70;0.60;;;4.50;99.90;;;;;;4929743;29;20231;-93
2022/12/30 05:33:58;;;;;;;0.80;0.70;;;4.50;99.90;;;;;;4919888;29;20679;-93
2022/12/30 05:36:25;;;;;;;1.00;0.80;;;4.50;99.90;;;;;;4920149;29;20202;-93
2022/12/30 05:38:51;;;;;;;0.70;0.70;;;4.40;99.90;;;;;;4922097;29;20296;-93
2022/12/30 05:41:18;;;;;;;1.15;0.70;;;4.40;99.90;;;;;;4922150;29;20236;-93
2022/12/30 05:43:45;;;;;;;0.80;0.80;;;4.40;99.90;;;;;;4922993;29;20209;-94
2022/12/30 05:46:12;;;;;;;1.55;1.00;;;4.30;99.90;;;;;;4934464;29;20277;-94
2022/12/30 05:48:39;;;;;;;2.38;0.93;;;4.30;99.90;;;;;;4940450;29;20269;-93
2022/12/30 05:51:07;;;;;;;1.55;0.90;;;4.20;99.90;;;;;;4941014;29;20269;-94
2022/12/30 05:53:34;;;;;;;1.10;0.75;;;4.20;99.90;;;;;;4940628;29;20194;-91
2022/12/30 05:56:02;;;;;;;0.80;0.80;;;4.20;99.90;;;;;;4939935;29;20196;-92
2022/12/30 05:58:29;;;;;;;0.77;0.68;;;4.20;99.90;;;;;;4935697;29;20257;-92
2022/12/30 06:00:57;;;;;;;0.80;0.70;;;4.10;99.90;;;;;;4921085;29;20230;-92
2022/12/30 06:03:23;;;;;;;0.80;0.70;;;4.10;99.90;;;;;;4919299;29;20218;-93
2022/12/30 06:05:56;;;;;;;0.80;0.70;;;4.10;99.90;;;;;;4919799;29;20229;-92
2022/12/30 06:08:24;;;;;;;1.00;0.90;;;4.00;99.90;;;;;;4919617;29;20210;-92
2022/12/30 06:10:51;;;;;;;1.23;0.70;;;4.00;99.90;;;;;;4920431;29;20280;-93
2022/12/30 06:13:18;;;;;;;1.20;0.95;;;3.90;99.90;;;;;;4919039;29;20218;-92
2022/12/30 06:15:45;;;;;;;1.00;0.90;;;3.80;99.90;;;;;;4940370;29;20256;-95
2022/12/30 06:18:12;;;;;;;0.90;0.80;;;3.80;99.90;;;;;;4929722;29;20197;-93
2022/12/30 06:20:39;;;;;;;0.80;0.73;;;3.80;99.90;;;;;;4921853;29;20258;-93
2022/12/30 06:23:06;;;;;;;0.88;0.70;;;3.80;99.90;;;;;;4919299;29;20221;-92
2022/12/30 06:25:35;;;;;;;1.20;0.85;;;3.80;99.90;;;;;;4918446;29;20262;-93
2022/12/30 06:28:02;;;;;;;1.00;0.80;;;3.90;99.90;;;;;;4922257;29;20293;-92
2022/12/30 06:30:29;;;;;;;0.90;0.80;;;3.90;99.90;;;;;;4921772;29;20230;-93
2022/12/30 06:32:57;;;;;;;0.70;0.65;;;3.90;99.90;;;;;;4922367;29;20245;-91
2022/12/30 06:35:24;;;;;;;0.90;0.70;;;3.90;99.90;;;;;;4921931;29;20211;-93
2022/12/30 06:37:52;;;;;;;2.22;0.70;;;3.90;99.90;;;;;;4922277;29;20253;-93
2022/12/30 06:40:19;;;;;;;1.13;0.85;;;4.00;99.90;;;;;;4921417;29;20717;-93
2022/12/30 06:42:47;;;;;;;1.00;0.90;;;3.90;99.90;;;;;;4921493;29;20671;-93
2022/12/30 06:45:14;;;;;;;1.15;0.70;;;3.90;99.90;;;;;;4921854;29;20575;-92
2022/12/30 06:47:41;;;;;;;0.80;0.75;;;3.90;99.90;;;;;;4921509;29;20617;-94
2022/12/30 06:50:09;;;;;;;2.55;0.70;;;3.90;99.90;;;;;;4921265;29;20677;-93
2022/12/30 06:52:35;;;;;;;0.80;0.80;;;3.80;99.90;;;;;;4922113;29;20627;-93
2022/12/30 06:55:02;;;;;;;1.25;0.90;;;3.80;99.90;;;;;;4923154;29;20576;-93
2022/12/30 06:57:29;;;;;;;1.08;0.95;;;3.80;99.90;;;;;;4923309;29;20213;-92
2022/12/30 06:59:58;;;;;;;1.20;1.00;;;3.80;99.90;;;;;;4924206;29;20241;-92
2022/12/30 07:02:25;;;;;;;1.00;0.80;;;3.80;99.90;;;;;;4924951;29;20233;-92
2022/12/30 07:04:52;;;;;;;1.20;1.00;;;3.70;99.90;;;;;;4925689;29;20237;-93
2022/12/30 07:07:19;;;;;;;1.10;0.85;;;3.70;99.90;;;;;;4925382;29;20230;-92
2022/12/30 07:09:46;;;;;;;1.00;0.88;;;3.70;99.90;;;;;;4925089;29;20237;-93
2022/12/30 07:12:13;;;;;;;1.10;0.90;;;3.60;99.90;;;;;;4926325;29;20289;-92
2022/12/30 07:14:40;;;;;;;0.80;0.70;;;3.60;99.90;;;;;;4927189;29;20296;-92
2022/12/30 07:17:08;;;;;;;0.93;0.80;;;3.60;99.90;;;;;;4932791;29;20210;-94
2022/12/30 07:19:35;;;;;;;1.17;0.80;;;3.60;99.90;;;;;;4940459;29;20225;-93
2022/12/30 07:22:02;;;;;;;1.10;0.77;;;3.60;99.90;;;;;;4940942;29;20261;-93
2022/12/30 07:24:29;;;;;;;1.15;0.90;;;3.60;99.90;;;;;;4930277;29;20210;-91
2022/12/30 07:26:56;;;;;;;1.50;0.90;;;3.60;99.90;;;;;;4921057;29;20707;-91
2022/12/30 07:29:22;;;;;;;0.85;0.80;;;3.60;99.90;;;;;;4920014;29;20668;-88
2022/12/30 07:31:52;;;;;;;0.80;0.70;;;3.60;99.90;;;;;;4920406;29;20221;-90
2022/12/30 07:34:20;;;;;;;0.70;0.70;;;3.70;99.90;;;;;;4921629;29;20241;-90
2022/12/30 07:36:47;;;;;;;1.00;0.90;;;3.70;99.90;;;;;;4918060;29;20261;-90
2022/12/30 07:39:13;;;;;;;1.17;1.08;;;3.80;99.90;;;;;;4918250;29;20589;-90
2022/12/30 07:41:40;;;;;;;1.33;0.80;;;3.90;99.90;;;;;;4918644;29;20226;-90
2022/12/30 07:44:07;;;;;;;1.02;0.90;;;3.90;99.90;;;;;;4918781;29;20217;-90
2022/12/30 07:46:36;;;;;;;1.27;1.10;;;3.90;99.90;;;;;;4918648;29;20225;-90
2022/12/30 07:49:03;;;;;;;1.42;0.98;;;3.90;99.90;;;;;;4918774;29;20268;-90
2022/12/30 07:51:31;;;;;;;0.80;0.70;;;3.90;99.90;;;;;;4918915;29;20228;-91
2022/12/30 07:53:59;;;;;;;1.10;1.00;;;3.90;99.90;;;;;;4919117;29;20202;-91
2022/12/30 07:56:26;;;;;;;1.88;1.25;;;3.80;99.90;;;;;;4920143;29;20208;-91
2022/12/30 07:58:54;;;;;;;1.20;1.10;;;3.80;99.90;;;;;;4921476;29;20301;-92
2022/12/30 08:01:22;;;;;;;1.50;1.40;;;3.80;99.90;;;;;;4919020;29;20748;-92
2022/12/30 08:03:48;;;;;;;1.63;1.10;;;3.80;99.90;;;;;;4919505;29;20220;-92
2022/12/30 08:06:17;;;;;;;1.30;1.10;;;4.00;99.90;;;;;;4919837;29;20211;-91
2022/12/30 08:08:45;;;;;;;1.00;0.90;;;4.30;99.90;;;;;;4920777;29;20216;-91
2022/12/30 08:11:14;;;;;;;3.50;1.17;;;4.80;99.90;;;;;;4921669;29;20221;-91
2022/12/30 08:13:43;;;;;;;1.25;1.10;;;5.40;99.90;;;;;;4941309;29;20189;-91
2022/12/30 08:16:11;;;;;;;1.15;1.00;;;5.90;99.90;;;;;;4921098;29;20219;-90
2022/12/30 08:18:37;;;;;;;1.58;1.30;;;6.40;99.90;;;;;;4920553;29;20202;-91
2022/12/30 08:21:07;;;;;;;2.15;1.35;;;7.00;99.90;;;;;;4919497;29;20270;-91
2022/12/30 08:23:34;;;;;;;1.63;1.15;;;7.40;99.90;;;;;;4918123;29;20698;-91
2022/12/30 08:26:05;;;;;;;1.65;1.35;;;7.60;99.90;;;;;;4918056;29;20203;-91
2022/12/30 08:28:32;;;;;;;1.83;1.17;;;7.70;99.90;;;;;;4921701;29;20293;-91
2022/12/30 08:30:59;;;;;;;1.40;1.30;;;7.90;99.90;;;;;;4920782;29;20232;-91
2022/12/30 08:33:27;;;;;;;1.20;1.10;;;8.10;99.90;;;;;;4915813;29;20205;-91
2022/12/30 08:35:53;;;;;;;1.63;1.20;;;8.30;99.90;;;;;;4918121;29;20210;-90
2022/12/30 08:38:20;;;;;;;1.85;1.45;;;8.50;99.90;;;;;;4903555;29;20218;-91
2022/12/30 08:40:47;;;;;;;2.03;1.40;;;8.60;99.90;;;;;;4918198;29;20226;-91
2022/12/30 08:43:18;;;;;;;1.60;1.40;;;8.20;99.90;;;;;;4919802;29;20209;-92
2022/12/30 08:45:45;;;;;;;1.45;1.35;;;7.80;99.90;;;;;;4919379;29;20233;-92
2022/12/30 08:48:12;;;;;;;2.55;1.80;;;7.50;99.90;;;;;;4918914;29;20230;-90
2022/12/30 08:50:38;;;;;;;3.50;1.80;;;7.40;99.90;;;;;;4919970;29;20231;-90
2022/12/30 08:53:05;;;;;;;2.50;2.20;;;7.40;99.90;;;;;;4921128;29;20213;-90
2022/12/30 08:55:32;;;;;;;1.77;1.67;;;7.30;99.90;;;;;;4920234;29;20220;-92
2022/12/30 08:57:59;;;;;;;2.85;1.10;;;7.20;99.90;;;;;;4921750;29;20213;-92
2022/12/30 09:00:27;;;;;;;2.55;1.35;;;7.00;99.90;;;;;;4938902;28;20218;-94
2022/12/30 09:02:54;;;;;;;1.20;1.00;;;6.60;99.90;;;;;;4922278;28;20269;-92
2022/12/30 09:05:20;;;;;;;1.30;1.00;;;6.20;99.90;;;;;;4920761;29;20206;-92
2022/12/30 09:07:47;;;;;;;2.20;1.10;;;6.00;99.90;;;;;;4921716;29;20224;-91
2022/12/30 09:10:14;;;;;;;1.67;1.30;;;5.70;99.90;;;;;;4924340;29;20226;-91
2022/12/30 09:12:40;;;;;;;1.10;0.88;;;5.60;99.90;;;;;;4926748;29;20217;-91
2022/12/30 09:15:09;;;;;;;1.40;1.30;;;5.60;99.90;;;;;;4922005;29;20714;-92
2022/12/30 09:17:37;;;;;;;0.93;0.88;;;5.70;99.90;;;;;;4921674;29;20205;-92
2022/12/30 09:20:05;;;;;;;1.50;1.40;;;5.80;99.90;;;;;;4924983;29;20802;-92
2022/12/30 09:22:32;;;;;;;1.10;1.00;;;6.00;99.90;;;;;;4927328;29;20217;-92
2022/12/30 09:24:59;;;;;;;0.90;0.80;;;6.20;99.90;;;;;;4923584;29;20216;-93
2022/12/30 09:27:25;;;;;;;0.80;0.73;;;6.40;99.90;;;;;;4922930;29;20231;-92
2022/12/30 09:29:53;;;;;;;1.00;0.90;;;6.70;99.90;;;;;;4921239;29;20230;-92
2022/12/30 09:32:20;;;;;;;1.00;0.70;;;7.30;99.90;;;;;;4920984;29;20207;-92
2022/12/30 09:34:48;;;;;;;1.00;0.70;;;8.40;99.90;;;;;;4919804;29;20601;-92
2022/12/30 09:37:15;;;;;;;0.90;0.80;;;10.00;99.90;;;;;;4920938;29;20208;-92
2022/12/30 09:39:42;;;;;;;1.20;1.00;;;11.50;99.90;;;;;;4920550;29;20229;-90
2022/12/30 09:45:11;;;;;;;1.20;0.93;;;14.20;99.90;;;;;;4934145;29;20292;-93
2022/12/30 09:47:45;;;;;;;1.48;0.90;;;15.00;99.90;;;;;;4929899;29;20264;-92
2022/12/30 09:50:22;;;;;;;1.10;0.80;;;15.50;99.90;;;;;;4926208;29;20273;-93
2022/12/30 09:52:58;;;;;;;2.17;1.00;;;15.20;99.90;;;;;;4925964;29;20497;-93
2022/12/30 09:55:34;;;;;;;0.83;0.70;;;15.70;99.90;;;;;;4924597;29;20564;-93
2022/12/30 09:58:10;;;;;;;0.90;0.80;;;15.90;99.90;;;;;;4938059;29;20987;-93
2022/12/30 10:00:49;;;;;;;1.20;0.80;;;16.00;99.90;;;;;;4938259;29;20499;-94
2022/12/30 10:03:21;;;;;;;1.20;0.90;;;16.20;99.90;;;;;;4943662;29;20528;-92
2022/12/30 10:08:38;;;;;;;1.47;1.10;;;17.90;99.90;;;;;;3836421;23;20477;-92
2022/12/30 10:11:26;;;;;;;1.20;1.10;;;18.30;99.90;;;;;;4933975;29;20514;-94
2022/12/30 10:14:16;;;;;;;1.00;0.90;;;18.90;99.90;;;;;;4930573;29;20450;-93
2022/12/30 10:16:57;;;;;;;1.10;1.00;;;19.70;99.90;;;;;;4925400;29;20486;-94
2022/12/30 10:19:43;;;;;;;1.27;1.00;;;19.30;99.90;;;;;;4932305;29;20466;-92
2022/12/30 10:25:39;;;;;;;0.97;0.80;;;18.40;99.90;;;;;;4944196;29;20456;-93
2022/12/30 10:28:12;;;;;;;1.10;0.97;;;17.90;99.90;;;;;;4937073;29;20557;-94
2022/12/30 10:30:44;;;;;;;1.67;1.07;;;17.30;99.90;;;;;;4938688;29;20492;-92
2022/12/30 10:33:24;;;;;;;1.20;1.00;;;17.20;99.90;;;;;;4940607;29;20486;-93
2022/12/30 10:35:54;;;;;;;1.40;1.10;;;18.10;99.90;;;;;;4939268;29;20453;-92
2022/12/30 10:38:31;;;;;;;1.53;0.90;;;19.40;99.40;;;;;;4938266;29;20501;-95
2022/12/30 10:41:19;;;;;;;1.50;1.17;;;19.90;98.80;;;;;;4942195;29;20468;-94
2022/12/30 10:52:01;;;;;;;1.83;1.73;;;18.10;99.40;;;;;;2802869;23;20489;-93
2022/12/30 10:54:28;;;;;;;1.20;1.10;;;17.70;99.60;;;;;;4938830;29;20458;-93
2022/12/30 10:56:56;;;;;;;1.53;1.07;;;17.00;99.90;;;;;;4939196;29;20450;-93
2022/12/30 10:59:28;;;;;;;1.43;1.10;;;17.20;99.90;;;;;;4938109;29;20466;-93
2022/12/30 11:02:01;;;;;;;1.23;1.00;;;17.90;99.90;;;;;;4939169;29;20474;-93
2022/12/30 11:04:36;;;;;;;1.20;0.90;;;18.40;98.90;;;;;;4939086;29;20450;-93
2022/12/30 11:07:06;;;;;;;2.23;1.00;;;18.00;99.40;;;;;;4941913;29;20462;-93
2022/12/30 11:09:33;;;;;;;0.97;0.87;;;17.50;99.30;;;;;;4941501;29;20522;-92
2022/12/30 11:15:00;;;;;;;1.30;1.00;;;16.90;99.90;;;;;;4941691;29;20458;-92
2022/12/30 11:17:32;;;;;;;1.03;0.90;;;16.70;99.90;;;;;;4940373;29;20438;-93
2022/12/30 11:20:05;;;;;;;1.10;1.00;;;16.00;99.90;;;;;;4939665;29;20478;-94
2022/12/30 11:22:32;;;;;;;0.93;0.83;;;15.90;99.90;;;;;;4937759;29;20474;-93
2022/12/30 11:25:03;;;;;;;1.30;0.97;;;16.50;99.90;;;;;;4939014;29;20457;-94
2022/12/30 11:27:37;;;;;;;1.00;0.90;;;16.40;99.90;;;;;;4943020;29;20505;-94
2022/12/30 11:30:05;;;;;;;1.30;1.00;;;15.60;99.90;;;;;;4942502;29;20465;-93
2022/12/30 11:32:33;;;;;;;1.97;0.90;;;14.80;99.90;;;;;;4942878;29;20466;-93
2022/12/30 11:35:00;;;;;;;1.63;1.30;;;14.80;99.90;;;;;;4942644;29;20466;-93
2022/12/30 11:37:35;;;;;;;1.70;1.40;;;14.70;99.90;;;;;;4942900;29;20542;-93
2022/12/30 11:40:27;;;;;;;1.00;0.90;;;15.20;99.90;;;;;;4939358;29;20485;-93
2022/12/30 11:43:14;;;;;;;1.57;1.13;;;15.20;99.90;;;;;;4940564;29;20517;-93
2022/12/30 11:45:49;;;;;;;2.90;1.33;;;14.30;99.90;;;;;;4938829;29;20465;-93
2022/12/30 11:48:29;;;;;;;1.10;0.90;;;13.40;99.90;;;;;;4935543;29;20509;-95
2022/12/30 11:50:57;;;;;;;2.10;1.20;;;12.70;99.90;;;;;;4935964;29;20293;-92
2022/12/30 11:53:33;;;;;;;2.25;1.25;;;12.50;99.90;;;;;;4934122;29;20278;-93
2022/12/30 11:56:01;;;;;;;2.20;1.40;;;12.30;99.90;;;;;;4933766;29;20679;-94
2022/12/30 11:58:57;;;;;;;1.50;1.40;;;12.00;99.90;;;;;;4939988;29;20231;-92
2022/12/30 12:01:25;;;;;;;2.30;1.40;;;11.80;99.90;;;;;;4939375;29;20243;-92
2022/12/30 12:03:59;;;;;;;1.60;1.30;;;11.20;99.90;;;;;;4940346;29;20210;-92
2022/12/30 12:06:29;;;;;;;3.30;1.00;;;10.70;99.90;;;;;;4919878;29;20209;-93
2022/12/30 12:18:44;;;;;;;1.08;0.98;;;9.60;99.90;;;;;;4920864;29;20195;-92
2022/12/30 12:24:33;;;;;;;3.83;1.38;;;9.30;99.90;;;;;;4921872;29;20195;-93
2022/12/30 12:33:09;;;;;;;2.08;1.30;;;9.40;99.90;;;;;;5154416;27;20651;-93
2022/12/30 12:35:46;;;;;;;2.42;1.05;;;9.30;99.90;;;;;;5135169;27;20246;-95
2022/12/30 12:38:33;;;;;;;1.85;1.10;;;9.20;99.90;;;;;;5135774;27;20262;-92
2022/12/30 12:41:18;;;;;;;1.45;1.10;;;9.00;99.90;;;;;;5121566;27;20222;-92
2022/12/30 12:43:58;;;;;;;2.03;1.55;;;8.80;99.90;;;;;;5113147;28;20661;-92
2022/12/30 12:46:47;;;;;;;2.83;1.48;;;8.80;99.90;;;;;;5112809;28;20207;-92
2022/12/30 12:49:41;;;;;;;2.53;2.05;;;8.80;99.90;;;;;;5115105;28;20251;-93
2022/12/30 12:52:22;;;;;;;1.60;1.35;;;8.70;99.90;;;;;;5114792;28;20271;-93
2022/12/30 12:57:41;;;;;;;1.80;1.30;;;8.60;99.90;;;;;;5153126;22;20240;-94
2022/12/30 13:00:12;;;;;;;1.92;1.38;;;8.60;99.90;;;;;;5087513;28;20221;-94
2022/12/30 13:03:19;;;;;;;1.80;1.55;;;8.60;99.90;;;;;;5074503;28;20224;-92
2022/12/30 13:06:00;;;;;;;1.50;1.33;;;8.60;99.90;;;;;;5070848;28;20193;-92
2022/12/30 13:08:48;;;;;;;2.00;1.60;;;8.60;99.90;;;;;;5066405;28;20205;-91
2022/12/30 13:11:20;;;;;;;2.65;1.77;;;8.60;99.90;;;;;;5064119;28;20271;-92
2022/12/30 13:13:54;;;;;;;3.97;1.23;;;8.50;99.90;;;;;;5061173;28;20293;-92
2022/12/30 13:16:25;;;;;;;1.75;1.40;;;8.60;99.90;;;;;;5059318;28;20203;-92
2022/12/30 13:18:56;;;;;;;1.85;1.30;;;8.60;99.90;;;;;;5059493;28;20216;-92
2022/12/30 13:21:27;;;;;;;2.20;2.00;;;8.60;99.90;;;;;;5058617;28;20281;-92
2022/12/30 13:24:00;;;;;;;1.20;1.10;;;8.60;99.90;;;;;;5060472;28;20201;-93
2022/12/30 13:26:29;;;;;;;1.10;0.90;;;8.70;99.90;;;;;;5057367;28;20205;-91
2022/12/30 13:29:00;;;;;;;2.30;1.30;;;8.80;99.90;;;;;;5055954;28;20201;-92
2022/12/30 13:31:39;;;;;;;1.42;1.13;;;8.90;99.90;;;;;;5038845;28;20217;-91
2022/12/30 13:34:25;;;;;;;1.52;1.15;;;8.90;99.90;;;;;;5038357;28;20210;-91
2022/12/30 13:39:48;;;;;;;1.75;1.40;;;8.90;99.90;;;;;;5042601;28;20228;-91
2022/12/30 13:46:20;;;;;;;2.03;1.40;;;8.90;99.90;;;;;;5031990;28;20198;-94
2022/12/30 13:48:52;;;;;;;1.10;0.90;;;8.90;99.90;;;;;;5028298;28;20210;-92
2022/12/30 13:51:21;;;;;;;1.90;1.50;;;8.90;99.90;;;;;;5036279;28;20293;-92
2022/12/30 13:56:36;;;;;;;1.20;1.10;;;8.80;99.90;;;;;;5027644;28;20548;-93
2022/12/30 13:59:04;;;;;;;1.40;1.20;;;8.80;99.90;;;;;;5020793;28;20208;-92
2022/12/30 14:01:38;;;;;;;1.30;1.17;;;8.70;99.90;;;;;;5022916;28;20269;-92
2022/12/30 14:04:32;;;;;;;1.75;1.17;;;8.70;99.90;;;;;;5023990;28;20206;-92
2022/12/30 14:07:00;;;;;;;0.93;0.85;;;8.70;99.90;;;;;;5028005;28;20370;-93
2022/12/30 14:09:30;;;;;;;1.20;1.08;;;8.60;99.90;;;;;;5028016;28;20206;-93
2022/12/30 14:12:30;;;;;;;2.05;1.52;;;8.60;99.90;;;;;;5028678;28;20218;-91
2022/12/30 14:15:01;;;;;;;1.33;1.05;;;8.50;99.90;;;;;;5037033;28;20209;-93
2022/12/30 14:17:33;;;;;;;1.30;1.10;;;8.50;99.90;;;;;;5038762;28;20217;-94
2022/12/30 14:20:04;;;;;;;1.38;1.27;;;8.50;99.90;;;;;;5035785;28;20229;-91
2022/12/30 14:23:00;;;;;;;1.42;1.17;;;8.40;99.90;;;;;;5024994;28;20203;-92
2022/12/30 14:25:35;;;;;;;4.40;1.67;;;8.40;99.90;;;;;;5050658;28;20201;-90
2022/12/30 14:28:23;;;;;;;1.65;1.38;;;8.40;99.90;;;;;;5039678;28;20649;-92
2022/12/30 14:30:52;;;;;;;1.55;1.38;;;8.30;99.90;;;;;;5052360;28;20229;-92
2022/12/30 14:41:55;;;;;;;5.43;2.95;;;8.30;99.90;;;;;;5085569;22;20296;-92
2022/12/30 14:47:15;;;;;;;3.00;2.50;;;8.20;99.90;;;;;;5081710;28;20199;-94
2022/12/30 14:53:00;;;;;;;4.65;3.40;;;8.20;99.90;;;;;;5064663;28;20220;-92
2022/12/30 14:58:48;;;;;;;4.30;2.97;;;8.20;99.90;;;;;;5071595;28;20201;-94
2022/12/30 15:01:20;;;;;;;3.42;2.50;;;8.20;99.90;;;;;;5037717;28;20244;-93
2022/12/30 15:03:47;;;;;;;2.67;2.15;;;8.30;99.90;;;;;;5036359;28;20206;-92
2022/12/30 15:06:15;;;;;;;2.88;2.05;;;8.30;99.90;;;;;;5036811;28;20208;-93
2022/12/30 15:08:43;;;;;;;2.42;2.20;;;8.30;99.90;;;;;;5036981;28;20563;-92
2022/12/30 15:11:19;;;;;;;2.05;1.83;;;8.40;99.90;;;;;;5037214;28;20221;-92
2022/12/30 15:13:51;;;;;;;2.53;1.70;;;8.40;99.90;;;;;;5036717;28;20309;-91
2022/12/30 15:16:20;;;;;;;2.33;1.80;;;8.40;99.90;;;;;;5036174;28;20209;-91
2022/12/30 15:18:49;;;;;;;2.15;1.70;;;8.50;99.90;;;;;;5034943;28;20209;-90